Time;durP1;ratioP1;P1;durP2;ratioP2;P2;SDS_P1;SDS_P2;PMS_P1;PMS_P2;Temp;Humidity;BMP_temperature;BMP_pressure;BME280_temperature;BME280_humidity;BME280_pressure;Samples;Min_cycle;Max_cycle;Signal;HPM_P1;HPM_P2
2023/06/20 00:01:52;;;;;;;20.10;18.40;;;23.20;90.20;;;;;;5071778;28;20432;-47
2023/06/20 00:04:19;;;;;;;18.00;16.43;;;23.20;90.30;;;;;;5071813;28;20440;-47
2023/06/20 00:06:46;;;;;;;19.20;17.70;;;23.20;90.40;;;;;;5072011;28;20443;-48
2023/06/20 00:09:14;;;;;;;19.00;17.23;;;23.10;90.50;;;;;;5071442;28;20452;-46
2023/06/20 00:11:40;;;;;;;18.43;16.73;;;22.90;90.40;;;;;;5071874;28;20443;-46
2023/06/20 00:14:07;;;;;;;20.23;18.47;;;23.10;90.70;;;;;;5053638;28;20487;-46
2023/06/20 00:16:34;;;;;;;20.50;18.40;;;22.90;90.70;;;;;;5072079;28;20435;-46
2023/06/20 00:19:03;;;;;;;19.13;17.43;;;22.90;90.90;;;;;;5071324;28;20453;-47
2023/06/20 00:21:29;;;;;;;19.13;17.53;;;22.90;91.10;;;;;;5071692;28;20445;-47
2023/06/20 00:23:56;;;;;;;18.00;16.50;;;22.80;91.10;;;;;;5071871;28;20439;-48
2023/06/20 00:26:24;;;;;;;18.83;17.00;;;22.80;91.20;;;;;;5071650;28;20429;-48
2023/06/20 00:28:51;;;;;;;20.50;18.80;;;22.80;91.30;;;;;;5071210;28;20825;-47
2023/06/20 00:31:17;;;;;;;20.27;18.53;;;22.70;91.40;;;;;;5071480;28;20441;-47
2023/06/20 00:33:44;;;;;;;19.83;18.20;;;22.70;91.50;;;;;;5071533;28;20474;-48
2023/06/20 00:36:13;;;;;;;20.70;19.07;;;22.70;91.60;;;;;;5053717;28;20418;-46
2023/06/20 00:38:39;;;;;;;20.13;18.23;;;22.70;91.60;;;;;;5071406;28;20451;-46
2023/06/20 00:41:06;;;;;;;18.73;17.13;;;22.70;91.60;;;;;;5071707;28;20442;-46
2023/06/20 00:43:34;;;;;;;20.03;18.43;;;22.60;91.70;;;;;;5071685;28;20435;-46
2023/06/20 00:46:01;;;;;;;20.67;19.07;;;22.70;91.80;;;;;;5071582;28;20932;-46
2023/06/20 00:48:28;;;;;;;21.00;19.10;;;22.60;91.80;;;;;;5071124;28;20460;-47
2023/06/20 00:50:57;;;;;;;18.97;17.47;;;22.60;91.80;;;;;;5053627;28;20453;-46
2023/06/20 00:53:24;;;;;;;19.50;17.77;;;22.80;92.00;;;;;;5071390;28;20541;-47
2023/06/20 00:55:51;;;;;;;19.70;17.90;;;22.70;92.00;;;;;;5071475;28;20493;-48
2023/06/20 00:58:19;;;;;;;18.87;17.37;;;22.70;92.10;;;;;;5053330;28;20498;-47
2023/06/20 01:00:48;;;;;;;19.70;18.10;;;22.70;92.10;;;;;;5053368;28;21005;-47
2023/06/20 01:03:15;;;;;;;19.07;17.47;;;22.70;92.00;;;;;;5071827;28;20435;-47
2023/06/20 01:05:43;;;;;;;19.57;17.97;;;22.70;92.00;;;;;;5053567;28;20453;-47
2023/06/20 01:08:16;;;;;;;19.93;18.30;;;22.50;91.80;;;;;;5056269;28;20495;-45
2023/06/20 01:10:56;;;;;;;20.23;18.47;;;22.60;91.70;;;;;;5057647;28;20542;-47
2023/06/20 01:13:30;;;;;;;19.63;18.00;;;22.60;91.70;;;;;;5074878;28;20834;-47
2023/06/20 01:16:06;;;;;;;20.00;18.30;;;22.50;91.70;;;;;;5074750;28;20434;-47
2023/06/20 01:18:43;;;;;;;18.53;17.03;;;22.50;91.70;;;;;;5056298;28;20475;-46
2023/06/20 01:21:16;;;;;;;21.40;19.60;;;22.50;91.80;;;;;;5074813;28;20430;-47
2023/06/20 01:23:52;;;;;;;21.03;19.17;;;22.50;91.90;;;;;;5056815;28;20954;-48
2023/06/20 01:26:27;;;;;;;20.80;19.00;;;22.50;91.90;;;;;;5056677;28;20454;-47
2023/06/20 01:28:59;;;;;;;20.07;18.57;;;22.40;92.00;;;;;;5069896;22;20494;-48
2023/06/20 01:31:31;;;;;;;19.50;17.80;;;22.30;92.10;;;;;;5075162;28;20434;-48
2023/06/20 01:34:01;;;;;;;21.00;19.20;;;22.10;92.00;;;;;;5074813;28;20470;-49
2023/06/20 01:36:34;;;;;;;21.13;19.07;;;22.20;92.20;;;;;;5073615;28;20950;-48
2023/06/20 01:39:06;;;;;;;22.27;20.37;;;22.20;92.30;;;;;;5074115;28;20450;-48
2023/06/20 01:41:36;;;;;;;20.47;18.77;;;22.20;92.40;;;;;;5056523;28;20450;-47
2023/06/20 01:44:05;;;;;;;20.60;18.77;;;22.70;92.70;;;;;;5056495;28;20456;-48
2023/06/20 01:46:33;;;;;;;21.30;19.47;;;22.20;92.50;;;;;;5074226;28;20414;-48
2023/06/20 01:49:01;;;;;;;19.47;17.80;;;22.10;92.40;;;;;;5073702;28;20507;-48
2023/06/20 01:51:29;;;;;;;22.13;20.13;;;22.20;92.70;;;;;;5074070;28;20431;-49
2023/06/20 01:53:58;;;;;;;21.27;19.20;;;22.20;92.80;;;;;;5056025;28;20933;-48
2023/06/20 01:56:27;;;;;;;22.30;20.53;;;22.30;92.90;;;;;;5073985;28;20429;-49
2023/06/20 01:58:54;;;;;;;19.20;17.40;;;21.80;92.70;;;;;;5055519;28;20477;-49
2023/06/20 02:01:22;;;;;;;21.63;19.63;;;21.80;92.90;;;;;;5055870;28;20964;-49
2023/06/20 02:03:50;;;;;;;21.93;20.07;;;22.10;93.10;;;;;;5055798;28;20454;-48
2023/06/20 02:06:18;;;;;;;21.60;19.60;;;22.50;93.50;;;;;;5073665;28;20437;-49
2023/06/20 02:08:44;;;;;;;20.90;19.30;;;21.80;93.20;;;;;;5073185;28;20447;-48
2023/06/20 02:11:11;;;;;;;24.37;20.17;;;21.80;93.40;;;;;;5055700;28;20451;-49
2023/06/20 02:13:39;;;;;;;23.17;21.13;;;21.80;93.50;;;;;;5073598;28;20491;-49
2023/06/20 02:16:08;;;;;;;22.43;20.43;;;22.00;93.80;;;;;;5055709;28;20505;-49
2023/06/20 02:18:37;;;;;;;24.33;21.80;;;21.90;93.80;;;;;;5054821;28;20473;-49
2023/06/20 02:21:07;;;;;;;24.10;21.77;;;21.90;93.90;;;;;;5073416;28;20439;-49
2023/06/20 02:23:35;;;;;;;21.53;19.73;;;21.80;94.00;;;;;;5055481;28;20473;-49
2023/06/20 02:26:07;;;;;;;23.67;21.27;;;21.80;94.00;;;;;;5055382;28;20472;-49
2023/06/20 02:28:37;;;;;;;23.47;21.57;;;21.80;94.00;;;;;;5073005;28;20548;-48
2023/06/20 02:31:07;;;;;;;23.30;21.30;;;21.80;94.10;;;;;;5055394;28;20442;-49
2023/06/20 02:33:34;;;;;;;22.77;20.97;;;21.80;94.20;;;;;;5073068;28;20879;-49
2023/06/20 02:36:03;;;;;;;22.47;20.37;;;21.70;94.30;;;;;;5055165;28;20472;-49
2023/06/20 02:38:31;;;;;;;22.57;20.57;;;21.70;94.40;;;;;;5072596;28;20472;-49
2023/06/20 02:40:58;;;;;;;23.53;21.53;;;21.70;94.40;;;;;;5054942;28;21049;-49
2023/06/20 02:43:24;;;;;;;23.93;21.53;;;21.90;94.60;;;;;;5055077;28;20452;-48
2023/06/20 02:45:58;;;;;;;21.57;19.67;;;21.70;94.70;;;;;;5072866;28;20488;-48
2023/06/20 02:48:30;;;;;;;22.63;20.63;;;21.90;94.80;;;;;;5072466;28;20809;-48
2023/06/20 02:51:06;;;;;;;23.07;21.00;;;21.70;94.80;;;;;;5054891;28;20449;-49
2023/06/20 02:53:44;;;;;;;23.33;21.23;;;21.50;94.80;;;;;;5054822;28;20537;-49
2023/06/20 02:56:13;;;;;;;23.53;21.30;;;21.80;95.10;;;;;;5073051;28;20773;-49
2023/06/20 02:58:45;;;;;;;23.57;21.47;;;21.60;95.10;;;;;;5054284;28;20468;-50
2023/06/20 03:01:15;;;;;;;25.60;23.40;;;21.90;95.30;;;;;;5055151;28;20449;-48
2023/06/20 03:03:46;;;;;;;23.37;21.33;;;22.00;95.40;;;;;;5054775;28;21004;-49
2023/06/20 03:06:15;;;;;;;24.40;22.10;;;22.10;95.60;;;;;;5054703;28;20548;-50
2023/06/20 03:08:49;;;;;;;22.40;20.17;;;21.80;95.50;;;;;;5054370;28;20469;-49
2023/06/20 03:11:16;;;;;;;24.40;22.00;;;21.90;95.60;;;;;;5054656;28;20809;-48
2023/06/20 03:13:43;;;;;;;23.57;21.50;;;21.80;95.60;;;;;;5054252;28;20469;-49
2023/06/20 03:16:09;;;;;;;22.87;20.50;;;22.10;95.80;;;;;;5072087;28;20536;-48
2023/06/20 03:18:36;;;;;;;24.70;22.43;;;21.90;95.80;;;;;;5071920;28;20448;-48
2023/06/20 03:21:05;;;;;;;22.50;20.53;;;21.70;95.80;;;;;;5054363;28;20455;-48
2023/06/20 03:23:32;;;;;;;23.10;21.00;;;21.70;95.90;;;;;;5054517;28;20488;-49
2023/06/20 03:25:59;;;;;;;23.90;21.80;;;21.60;95.90;;;;;;5054476;28;20481;-49
2023/06/20 03:28:26;;;;;;;23.70;21.33;;;21.60;96.00;;;;;;5071562;28;20456;-49
2023/06/20 03:30:55;;;;;;;23.10;21.10;;;21.40;96.00;;;;;;5053690;28;20453;-47
2023/06/20 03:33:24;;;;;;;25.70;22.63;;;21.50;96.10;;;;;;5054207;28;20450;-49
2023/06/20 03:35:51;;;;;;;23.53;21.60;;;21.50;96.10;;;;;;5071945;28;20425;-49
2023/06/20 03:38:19;;;;;;;25.00;22.70;;;21.90;96.30;;;;;;5053935;28;20820;-49
2023/06/20 03:40:46;;;;;;;25.13;22.53;;;22.10;96.40;;;;;;5054130;28;20801;-49
2023/06/20 03:43:13;;;;;;;25.73;23.40;;;22.00;96.30;;;;;;5054073;28;20470;-50
2023/06/20 03:45:39;;;;;;;24.17;21.93;;;22.10;96.30;;;;;;5071843;28;20433;-49
2023/06/20 03:48:06;;;;;;;24.63;22.23;;;21.80;96.10;;;;;;5071562;28;20840;-49
2023/06/20 03:50:33;;;;;;;23.77;21.83;;;21.90;96.20;;;;;;5054276;28;20449;-49
2023/06/20 03:53:02;;;;;;;26.10;23.60;;;22.20;96.40;;;;;;5053844;28;20521;-48
2023/06/20 03:55:29;;;;;;;24.13;22.13;;;22.10;96.30;;;;;;5053758;28;20527;-48
2023/06/20 03:57:56;;;;;;;24.97;22.87;;;22.30;96.40;;;;;;5053631;28;20825;-49
2023/06/20 04:00:23;;;;;;;25.10;22.90;;;22.10;96.20;;;;;;5053543;28;20476;-49
2023/06/20 04:02:50;;;;;;;25.30;23.10;;;22.60;96.40;;;;;;5053769;28;20472;-48
2023/06/20 04:05:17;;;;;;;26.47;24.17;;;22.00;96.10;;;;;;5053673;28;20503;-48
2023/06/20 04:07:44;;;;;;;24.73;22.73;;;22.30;96.10;;;;;;5071749;28;20422;-49
2023/06/20 04:10:12;;;;;;;25.87;23.40;;;22.10;96.00;;;;;;5053195;28;20482;-48
2023/06/20 04:12:40;;;;;;;25.03;22.90;;;22.30;96.10;;;;;;5071890;28;20999;-50
2023/06/20 04:15:07;;;;;;;26.83;24.43;;;22.20;96.00;;;;;;5053552;28;20492;-48
2023/06/20 04:17:34;;;;;;;26.10;23.80;;;22.30;96.00;;;;;;5071928;28;20434;-49
2023/06/20 04:20:07;;;;;;;24.97;22.77;;;22.20;96.00;;;;;;5071171;28;20454;-48
2023/06/20 04:22:35;;;;;;;25.27;23.17;;;22.30;96.10;;;;;;5053630;28;20966;-48
2023/06/20 04:25:02;;;;;;;24.90;22.73;;;22.60;96.30;;;;;;5071482;28;20430;-48
2023/06/20 04:27:29;;;;;;;24.03;21.93;;;22.30;96.20;;;;;;5053676;28;20962;-48
2023/06/20 04:29:59;;;;;;;24.50;22.40;;;22.30;96.10;;;;;;5053197;28;20535;-49
2023/06/20 04:32:25;;;;;;;23.70;21.40;;;22.20;96.00;;;;;;5053411;28;20457;-49
2023/06/20 04:34:52;;;;;;;25.60;23.23;;;22.30;96.00;;;;;;5053457;28;20982;-48
2023/06/20 04:37:21;;;;;;;24.27;22.20;;;22.30;96.00;;;;;;5053881;28;20465;-48
2023/06/20 04:39:48;;;;;;;25.43;23.37;;;22.30;96.00;;;;;;5053272;28;20501;-48
2023/06/20 04:42:15;;;;;;;23.23;21.40;;;22.50;96.00;;;;;;5055536;28;20453;-48
2023/06/20 04:44:44;;;;;;;24.27;22.07;;;22.70;95.70;;;;;;5057551;28;20556;-48
2023/06/20 04:47:13;;;;;;;23.93;21.67;;;23.10;95.60;;;;;;5075870;28;20791;-47
2023/06/20 04:49:40;;;;;;;22.87;20.90;;;23.00;95.20;;;;;;5057119;28;20520;-48
2023/06/20 04:52:07;;;;;;;24.50;22.50;;;23.20;95.10;;;;;;5075622;28;20431;-49
2023/06/20 04:54:34;;;;;;;26.33;24.13;;;23.20;94.70;;;;;;5075332;28;20482;-49
2023/06/20 04:57:02;;;;;;;26.13;23.83;;;22.00;93.90;;;;;;5075633;28;20427;-50
2023/06/20 04:59:29;;;;;;;26.30;23.93;;;22.90;94.20;;;;;;5057282;28;20475;-49
2023/06/20 05:01:55;;;;;;;26.40;24.10;;;23.30;94.30;;;;;;5074896;28;20432;-48
2023/06/20 05:04:24;;;;;;;25.80;23.63;;;23.00;94.20;;;;;;5056702;28;20444;-49
2023/06/20 05:06:50;;;;;;;26.90;24.50;;;23.20;94.20;;;;;;5056663;28;20495;-49
2023/06/20 05:09:17;;;;;;;26.17;23.50;;;23.20;94.20;;;;;;5056286;28;20576;-49
2023/06/20 05:11:44;;;;;;;25.20;22.90;;;23.20;94.20;;;;;;5056714;28;20511;-49
2023/06/20 05:14:10;;;;;;;24.90;22.80;;;23.10;94.30;;;;;;5074769;28;20848;-49
2023/06/20 05:16:37;;;;;;;26.93;24.30;;;23.10;94.40;;;;;;5074518;28;20427;-49
2023/06/20 05:19:03;;;;;;;27.63;25.43;;;23.10;94.40;;;;;;5074080;28;20835;-48
2023/06/20 05:21:31;;;;;;;25.60;23.40;;;23.10;94.50;;;;;;5074354;28;20435;-49
2023/06/20 05:23:58;;;;;;;26.83;24.53;;;23.10;94.60;;;;;;5056528;28;20457;-47
2023/06/20 05:26:24;;;;;;;26.13;23.97;;;23.00;94.70;;;;;;5074382;28;20957;-49
2023/06/20 05:28:51;;;;;;;26.30;24.00;;;23.00;94.80;;;;;;5073969;28;20839;-49
2023/06/20 05:31:18;;;;;;;26.70;24.40;;;23.00;94.90;;;;;;5074330;28;20438;-48
2023/06/20 05:33:44;;;;;;;25.07;23.03;;;23.00;95.00;;;;;;5074402;28;20446;-48
2023/06/20 05:36:11;;;;;;;29.40;26.70;;;23.00;95.00;;;;;;5074106;28;20465;-49
2023/06/20 05:38:39;;;;;;;30.97;28.37;;;22.70;94.80;;;;;;5073942;28;20462;-50
2023/06/20 05:41:05;;;;;;;30.20;27.47;;;23.00;94.90;;;;;;5073954;28;20940;-49
2023/06/20 05:43:33;;;;;;;28.23;25.83;;;22.90;94.90;;;;;;5073953;28;20435;-48
2023/06/20 05:45:59;;;;;;;26.63;24.43;;;23.10;94.90;;;;;;5073763;28;20432;-54
2023/06/20 05:48:26;;;;;;;29.87;26.83;;;23.20;94.90;;;;;;5073435;28;20467;-49
2023/06/20 05:50:53;;;;;;;27.87;25.33;;;23.20;94.90;;;;;;5073764;28;20427;-48
2023/06/20 05:53:20;;;;;;;27.10;24.40;;;23.20;94.90;;;;;;5072908;28;20443;-48
2023/06/20 05:55:50;;;;;;;26.37;23.83;;;23.20;94.90;;;;;;5074269;28;20476;-48
2023/06/20 05:58:17;;;;;;;27.60;25.20;;;23.30;94.90;;;;;;5073699;28;20795;-49
2023/06/20 06:00:45;;;;;;;25.60;23.20;;;23.30;94.80;;;;;;5073509;28;20940;-51
2023/06/20 06:03:12;;;;;;;25.30;23.30;;;23.50;94.90;;;;;;5073695;28;20795;-50
2023/06/20 06:05:39;;;;;;;23.60;21.67;;;23.30;94.60;;;;;;5073431;28;20962;-49
2023/06/20 06:08:05;;;;;;;25.00;22.90;;;23.50;94.50;;;;;;5073401;28;20817;-49
2023/06/20 06:10:32;;;;;;;26.40;23.70;;;24.00;94.70;;;;;;5073395;28;20433;-49
2023/06/20 06:13:00;;;;;;;23.70;21.70;;;24.00;94.30;;;;;;5073375;28;20442;-49
2023/06/20 06:15:27;;;;;;;26.43;23.90;;;24.30;94.20;;;;;;5073446;28;20481;-49
2023/06/20 06:17:53;;;;;;;25.40;23.10;;;24.30;94.00;;;;;;5055504;28;20453;-49
2023/06/20 06:20:23;;;;;;;26.80;24.47;;;24.50;94.00;;;;;;5072754;28;20840;-49
2023/06/20 06:22:50;;;;;;;26.77;24.17;;;24.70;93.70;;;;;;5073040;28;20441;-49
2023/06/20 06:25:17;;;;;;;27.23;24.87;;;24.60;93.30;;;;;;5073156;28;20919;-49
2023/06/20 06:27:43;;;;;;;25.97;23.87;;;25.10;93.20;;;;;;5073512;28;20475;-49
2023/06/20 06:30:14;;;;;;;26.97;24.80;;;25.20;92.90;;;;;;5072360;28;20999;-48
2023/06/20 06:32:41;;;;;;;29.27;26.73;;;25.80;93.00;;;;;;5072693;28;20427;-48
2023/06/20 06:35:10;;;;;;;28.30;25.80;;;25.50;92.60;;;;;;5072663;28;20465;-49
2023/06/20 06:37:36;;;;;;;26.70;24.50;;;25.60;92.30;;;;;;5072795;28;20430;-50
2023/06/20 06:40:05;;;;;;;27.37;24.80;;;25.70;92.20;;;;;;5072176;28;20969;-49
2023/06/20 06:42:32;;;;;;;28.00;25.60;;;25.80;92.00;;;;;;5072691;28;20432;-49
2023/06/20 06:45:02;;;;;;;28.90;26.40;;;25.60;91.80;;;;;;5054290;28;20479;-49
2023/06/20 06:47:30;;;;;;;27.53;25.33;;;26.00;91.70;;;;;;5072564;28;20465;-50
2023/06/20 06:49:57;;;;;;;27.73;25.50;;;26.10;91.50;;;;;;5072353;28;20871;-49
2023/06/20 06:52:24;;;;;;;27.90;25.23;;;26.10;91.50;;;;;;5072570;28;20434;-50
2023/06/20 06:54:50;;;;;;;28.27;25.67;;;26.10;91.30;;;;;;5072338;28;20479;-49
2023/06/20 06:57:17;;;;;;;27.00;24.90;;;26.20;91.20;;;;;;5071920;28;20430;-49
2023/06/20 06:59:43;;;;;;;28.70;26.40;;;26.20;91.20;;;;;;5071872;28;20794;-50
2023/06/20 07:02:10;;;;;;;27.63;24.97;;;26.20;91.30;;;;;;5072349;28;20948;-48
2023/06/20 07:04:38;;;;;;;26.50;24.40;;;26.20;91.20;;;;;;5072069;28;20438;-49
2023/06/20 07:07:05;;;;;;;26.60;24.50;;;25.90;91.00;;;;;;5071937;28;20491;-50
2023/06/20 07:09:31;;;;;;;28.20;25.57;;;26.20;91.20;;;;;;5071779;28;20799;-51
2023/06/20 07:11:58;;;;;;;26.73;24.60;;;26.10;91.20;;;;;;5072382;28;20533;-49
2023/06/20 07:14:26;;;;;;;26.73;24.63;;;26.30;91.20;;;;;;5072530;28;20473;-49
2023/06/20 07:16:52;;;;;;;25.40;23.20;;;26.30;91.20;;;;;;5072231;28;20443;-49
2023/06/20 07:19:19;;;;;;;27.70;25.50;;;26.40;91.20;;;;;;5071799;28;20454;-49
2023/06/20 07:21:47;;;;;;;26.23;24.00;;;26.40;91.00;;;;;;5072357;28;20438;-49
2023/06/20 07:24:14;;;;;;;28.90;26.40;;;26.40;90.80;;;;;;5072179;28;21021;-49
2023/06/20 07:26:40;;;;;;;27.77;25.40;;;26.30;90.70;;;;;;5072200;28;20430;-51
2023/06/20 07:29:07;;;;;;;30.93;28.23;;;26.30;90.80;;;;;;5072202;28;20540;-50
2023/06/20 07:31:34;;;;;;;29.20;26.70;;;26.30;90.90;;;;;;5071860;28;20442;-49
2023/06/20 07:34:00;;;;;;;26.43;24.23;;;25.60;90.50;;;;;;5072244;28;20502;-49
2023/06/20 07:36:27;;;;;;;28.40;25.97;;;26.30;90.70;;;;;;5071784;28;20821;-49
2023/06/20 07:38:55;;;;;;;28.10;25.80;;;26.60;90.80;;;;;;5071327;28;21034;-49
2023/06/20 07:41:21;;;;;;;28.47;26.27;;;26.60;90.80;;;;;;5071842;28;20430;-49
2023/06/20 07:43:48;;;;;;;97.23;89.00;;;26.60;90.70;;;;;;5071589;28;20445;-49
2023/06/20 07:46:14;;;;;;;32.60;29.83;;;26.70;90.60;;;;;;5071818;28;20433;-49
2023/06/20 07:48:41;;;;;;;29.50;26.70;;;26.80;90.40;;;;;;5071347;28;20461;-49
2023/06/20 07:51:08;;;;;;;29.57;27.27;;;26.90;90.20;;;;;;5071782;28;20441;-48
2023/06/20 07:53:34;;;;;;;29.10;26.30;;;27.00;90.10;;;;;;5053810;28;20981;-49
2023/06/20 07:56:02;;;;;;;27.17;24.77;;;27.10;90.00;;;;;;5071781;28;20568;-49
2023/06/20 07:58:29;;;;;;;27.43;25.10;;;27.20;89.70;;;;;;5071147;28;20537;-49
2023/06/20 08:00:56;;;;;;;29.07;26.30;;;27.20;89.70;;;;;;5072222;28;20438;-49
2023/06/20 08:03:24;;;;;;;29.43;26.67;;;27.30;89.90;;;;;;5054204;28;20502;-49
2023/06/20 08:05:51;;;;;;;30.00;27.10;;;27.30;90.00;;;;;;5054132;28;20513;-51
2023/06/20 08:08:18;;;;;;;29.70;26.90;;;27.40;89.70;;;;;;5071374;28;20922;-50
2023/06/20 08:10:44;;;;;;;31.00;28.40;;;27.50;88.70;;;;;;5071994;28;20442;-49
2023/06/20 08:13:12;;;;;;;28.57;25.83;;;27.60;88.00;;;;;;5072056;28;20433;-48
2023/06/20 08:15:39;;;;;;;27.63;25.43;;;27.70;87.50;;;;;;5071594;28;20495;-49
2023/06/20 08:18:06;;;;;;;30.20;27.23;;;27.80;87.70;;;;;;5074469;28;20440;-50
2023/06/20 08:20:35;;;;;;;30.47;27.43;;;27.80;87.40;;;;;;5075687;28;20428;-50
2023/06/20 08:23:02;;;;;;;29.00;26.37;;;27.90;87.30;;;;;;5057629;28;20452;-48
2023/06/20 08:25:28;;;;;;;30.27;27.57;;;27.90;87.30;;;;;;5075292;28;20469;-50
2023/06/20 08:27:55;;;;;;;29.20;26.70;;;27.90;87.00;;;;;;5075402;28;20433;-49
2023/06/20 08:30:23;;;;;;;30.33;27.77;;;27.80;87.20;;;;;;5075084;28;20479;-48
2023/06/20 08:32:50;;;;;;;29.23;26.83;;;27.50;87.30;;;;;;5075266;28;20969;-50
2023/06/20 08:35:17;;;;;;;29.50;26.87;;;27.80;87.50;;;;;;5075213;28;20492;-50
2023/06/20 08:37:43;;;;;;;30.57;27.57;;;27.80;87.50;;;;;;5075105;28;20870;-50
2023/06/20 08:40:12;;;;;;;28.60;26.17;;;27.70;87.80;;;;;;5056579;28;20560;-49
2023/06/20 08:42:40;;;;;;;28.20;25.90;;;27.80;87.80;;;;;;5075078;28;20437;-49
2023/06/20 08:45:08;;;;;;;38.90;35.60;;;27.80;88.00;;;;;;5074798;28;20426;-48
2023/06/20 08:47:36;;;;;;;28.23;25.50;;;27.80;88.20;;;;;;5074824;28;20436;-50
2023/06/20 08:50:03;;;;;;;28.70;25.50;;;27.80;88.40;;;;;;5074647;28;20468;-50
2023/06/20 08:52:31;;;;;;;25.67;23.20;;;27.80;88.20;;;;;;5074930;28;20452;-50
2023/06/20 08:54:59;;;;;;;27.37;25.00;;;27.80;88.20;;;;;;5074870;28;20431;-48
2023/06/20 08:57:26;;;;;;;27.03;24.83;;;27.80;88.10;;;;;;5056301;28;20476;-49
2023/06/20 08:59:53;;;;;;;27.53;25.20;;;27.80;87.80;;;;;;5074399;28;20449;-49
2023/06/20 09:02:21;;;;;;;26.77;24.40;;;28.00;87.20;;;;;;5074788;28;20428;-50
2023/06/20 09:05:00;;;;;;;26.70;24.50;;;28.10;86.40;;;;;;5074984;28;20267;-49
2023/06/20 09:07:36;;;;;;;27.90;25.00;;;28.20;86.20;;;;;;5074852;28;20436;-50
2023/06/20 09:10:04;;;;;;;27.10;24.90;;;28.20;86.10;;;;;;5074252;28;20459;-50
2023/06/20 09:12:45;;;;;;;28.23;25.80;;;28.20;86.30;;;;;;5056229;28;20546;-50
2023/06/20 09:15:13;;;;;;;29.17;26.23;;;28.20;86.70;;;;;;5074264;28;20471;-50
2023/06/20 09:17:41;;;;;;;32.30;28.87;;;28.10;87.00;;;;;;5074264;28;20449;-48
2023/06/20 09:20:11;;;;;;;42.53;34.30;;;28.10;87.10;;;;;;5073896;28;20618;-50
2023/06/20 09:22:39;;;;;;;55.40;38.40;;;28.10;87.00;;;;;;5074153;28;20442;-49
2023/06/20 09:25:07;;;;;;;29.17;26.20;;;28.10;86.90;;;;;;5074137;28;20448;-50
2023/06/20 09:27:38;;;;;;;28.53;25.70;;;28.00;86.70;;;;;;5074134;28;20435;-51
2023/06/20 09:30:06;;;;;;;27.50;25.07;;;28.00;86.60;;;;;;5072912;28;20465;-48
2023/06/20 09:32:37;;;;;;;29.23;26.80;;;27.90;86.90;;;;;;5074160;28;20440;-48
2023/06/20 09:35:05;;;;;;;26.67;24.40;;;27.80;86.90;;;;;;5073935;28;20434;-50
2023/06/20 09:37:41;;;;;;;25.83;23.53;;;27.60;87.00;;;;;;5055896;28;20825;-50
2023/06/20 09:40:09;;;;;;;27.00;24.53;;;27.50;87.30;;;;;;5073779;28;20465;-50
2023/06/20 09:42:37;;;;;;;27.20;24.87;;;27.40;89.10;;;;;;5073434;28;20502;-49
2023/06/20 09:45:04;;;;;;;28.13;24.90;;;27.30;90.20;;;;;;5074009;28;20854;-50
2023/06/20 09:47:31;;;;;;;26.83;24.70;;;27.20;91.20;;;;;;5056123;28;20823;-49
2023/06/20 09:49:58;;;;;;;29.03;26.50;;;26.90;91.80;;;;;;5055162;28;21044;-49
2023/06/20 09:52:32;;;;;;;28.70;26.23;;;26.90;92.20;;;;;;5073721;28;20954;-50
2023/06/20 09:55:01;;;;;;;27.67;25.57;;;26.80;92.70;;;;;;5073661;28;20451;-49
2023/06/20 09:57:37;;;;;;;31.93;28.83;;;26.60;93.20;;;;;;5073447;28;20479;-50
2023/06/20 10:00:11;;;;;;;31.40;28.77;;;26.40;94.40;;;;;;5073132;28;20459;-49
2023/06/20 10:02:40;;;;;;;31.43;28.27;;;26.10;95.30;;;;;;5073584;28;20425;-49
2023/06/20 10:05:09;;;;;;;33.70;30.60;;;25.90;95.50;;;;;;5073579;28;20432;-48
2023/06/20 10:07:37;;;;;;;33.77;30.53;;;25.70;96.60;;;;;;5073444;28;20524;-49
2023/06/20 10:10:06;;;;;;;34.80;31.80;;;25.50;97.10;;;;;;5072799;28;20503;-49
2023/06/20 10:12:33;;;;;;;35.40;32.10;;;25.50;97.90;;;;;;5073331;28;20862;-51
2023/06/20 10:15:01;;;;;;;38.00;34.57;;;24.70;98.10;;;;;;5073481;28;20437;-49
2023/06/20 10:17:32;;;;;;;36.97;33.90;;;25.30;98.80;;;;;;5073199;28;20477;-49
2023/06/20 10:19:59;;;;;;;36.77;33.27;;;25.20;99.60;;;;;;5072969;28;20481;-48
2023/06/20 10:22:37;;;;;;;34.40;31.00;;;25.20;99.90;;;;;;5073083;28;20533;-48
2023/06/20 10:25:12;;;;;;;33.03;30.17;;;25.20;99.90;;;;;;5072908;28;20443;-48
2023/06/20 10:27:41;;;;;;;37.80;34.13;;;24.90;99.90;;;;;;5072858;28;20451;-49
2023/06/20 10:30:09;;;;;;;36.23;33.00;;;24.80;99.90;;;;;;5072612;28;20833;-47
2023/06/20 10:32:35;;;;;;;35.13;31.97;;;24.70;99.90;;;;;;5073004;28;20437;-49
2023/06/20 10:35:09;;;;;;;32.90;30.13;;;25.20;99.90;;;;;;5072835;28;20529;-50
2023/06/20 10:37:38;;;;;;;34.00;30.90;;;24.50;99.90;;;;;;5072756;28;20475;-49
2023/06/20 10:40:09;;;;;;;36.17;32.90;;;24.20;99.90;;;;;;5072349;28;20453;-49
2023/06/20 10:42:41;;;;;;;34.10;30.70;;;24.30;99.90;;;;;;5073005;28;20941;-50
2023/06/20 10:45:18;;;;;;;33.70;30.90;;;24.10;99.90;;;;;;5072756;28;20529;-50
2023/06/20 10:47:46;;;;;;;36.60;33.07;;;23.70;99.90;;;;;;5055063;28;20801;-50
2023/06/20 10:50:13;;;;;;;36.57;32.90;;;24.10;99.90;;;;;;5072013;28;20780;-49
2023/06/20 10:52:41;;;;;;;37.90;34.10;;;24.10;99.90;;;;;;5072764;28;20433;-49
2023/06/20 10:55:10;;;;;;;36.10;32.87;;;24.00;99.90;;;;;;5072452;28;20529;-49
2023/06/20 10:57:36;;;;;;;35.20;32.20;;;24.00;99.90;;;;;;5072434;28;20491;-51
2023/06/20 11:00:13;;;;;;;35.53;32.20;;;24.00;99.90;;;;;;5071950;28;20444;-48
2023/06/20 11:02:40;;;;;;;33.87;31.13;;;23.90;99.90;;;;;;5072449;28;20437;-49
2023/06/20 11:05:09;;;;;;;37.93;34.43;;;23.90;99.90;;;;;;5072166;28;20436;-51
2023/06/20 11:07:36;;;;;;;34.27;31.10;;;23.90;99.90;;;;;;5072242;28;20436;-48
2023/06/20 11:10:16;;;;;;;33.50;30.67;;;23.90;99.90;;;;;;5053757;28;20465;-49
2023/06/20 11:12:43;;;;;;;37.17;33.83;;;23.30;99.90;;;;;;5072633;28;20429;-49
2023/06/20 11:15:22;;;;;;;34.97;31.97;;;23.90;99.90;;;;;;5072248;28;20436;-48
2023/06/20 11:17:49;;;;;;;34.50;31.60;;;23.90;99.90;;;;;;5072955;28;20987;-49
2023/06/20 11:20:17;;;;;;;35.00;31.70;;;23.90;99.90;;;;;;5053591;28;20981;-48
2023/06/20 11:22:45;;;;;;;31.43;28.83;;;23.90;99.90;;;;;;5054450;28;20445;-50
2023/06/20 11:25:12;;;;;;;34.73;31.83;;;23.90;99.90;;;;;;5072175;28;20433;-48
2023/06/20 11:27:41;;;;;;;34.27;31.47;;;24.00;99.90;;;;;;5054162;28;21058;-50
2023/06/20 11:30:09;;;;;;;33.80;30.87;;;24.00;99.90;;;;;;5053405;28;20481;-49
2023/06/20 11:32:35;;;;;;;34.63;31.83;;;24.10;99.90;;;;;;5071856;28;20438;-50
2023/06/20 11:35:03;;;;;;;36.43;33.40;;;23.70;99.90;;;;;;5072238;28;20444;-50
2023/06/20 11:37:30;;;;;;;33.23;30.40;;;24.10;99.90;;;;;;5071718;28;20902;-49
2023/06/20 11:39:57;;;;;;;34.17;30.93;;;24.10;99.90;;;;;;5053592;28;20516;-49
2023/06/20 11:42:24;;;;;;;35.40;32.43;;;24.10;99.90;;;;;;5071664;28;20451;-49
2023/06/20 11:44:52;;;;;;;34.07;31.47;;;24.20;99.90;;;;;;5071918;28;20970;-49
2023/06/20 11:47:18;;;;;;;33.60;30.50;;;24.30;99.90;;;;;;5071693;28;20486;-49
2023/06/20 11:49:45;;;;;;;33.80;31.07;;;24.30;99.90;;;;;;5071344;28;20458;-50
2023/06/20 11:52:12;;;;;;;32.77;30.07;;;24.30;99.90;;;;;;5071214;28;20877;-51
2023/06/20 11:54:49;;;;;;;32.80;30.10;;;24.40;99.90;;;;;;5071375;28;20447;-50
2023/06/20 11:57:28;;;;;;;40.00;36.70;;;24.50;99.90;;;;;;5071685;28;20488;-49
2023/06/20 11:59:59;;;;;;;127.97;117.30;;;24.50;99.90;;;;;;5070555;28;20844;-50
2023/06/20 12:02:27;;;;;;;34.13;31.30;;;24.50;99.90;;;;;;5071545;28;20450;-50
2023/06/20 12:04:57;;;;;;;32.97;30.23;;;24.60;99.90;;;;;;5071381;28;20425;-48
2023/06/20 12:07:25;;;;;;;35.43;32.43;;;24.70;99.90;;;;;;5071670;28;20942;-50
2023/06/20 12:09:51;;;;;;;33.17;30.47;;;24.90;99.90;;;;;;5071189;28;20540;-49
2023/06/20 12:12:18;;;;;;;33.87;31.10;;;24.80;99.90;;;;;;5071980;28;20442;-50
2023/06/20 12:14:51;;;;;;;35.53;32.67;;;24.90;99.90;;;;;;5071657;28;20427;-51
2023/06/20 12:17:19;;;;;;;34.47;31.67;;;24.90;99.90;;;;;;5071503;28;20627;-48
2023/06/20 12:19:53;;;;;;;32.97;29.90;;;24.90;99.90;;;;;;5070716;28;20449;-50
2023/06/20 12:22:20;;;;;;;32.40;29.90;;;25.00;99.90;;;;;;5071609;28;20430;-49
2023/06/20 12:24:47;;;;;;;34.40;31.40;;;25.10;99.90;;;;;;5071544;28;20421;-50
2023/06/20 12:27:13;;;;;;;33.30;30.50;;;25.20;99.90;;;;;;5071346;28;20429;-50
2023/06/20 12:29:40;;;;;;;35.30;32.40;;;25.30;99.90;;;;;;5070801;28;20468;-49
2023/06/20 12:32:08;;;;;;;34.13;31.43;;;25.40;99.90;;;;;;5071363;28;20807;-50